sensor_id;sensor_type;location;lat;lon;timestamp;temperature;humidity
45323;DHT22;31382;50.200;8.674;2022-07-22T00:04:25;18.90;99.90
45323;DHT22;31382;50.200;8.674;2022-07-22T00:09:27;18.80;99.90
45323;DHT22;31382;50.200;8.674;2022-07-22T00:14:29;18.70;99.90
45323;DHT22;31382;50.200;8.674;2022-07-22T00:19:30;18.70;99.90
45323;DHT22;31382;50.200;8.674;2022-07-22T00:24:32;18.60;99.90
45323;DHT22;31382;50.200;8.674;2022-07-22T00:29:34;18.60;99.90
45323;DHT22;31382;50.200;8.674;2022-07-22T00:34:35;18.60;99.90
45323;DHT22;31382;50.200;8.674;2022-07-22T00:39:37;18.50;99.90
45323;DHT22;31382;50.200;8.674;2022-07-22T00:44:39;18.40;99.90
45323;DHT22;31382;50.200;8.674;2022-07-22T00:49:41;18.40;99.90
45323;DHT22;31382;50.200;8.674;2022-07-22T00:54:42;18.40;99.90
45323;DHT22;31382;50.200;8.674;2022-07-22T00:59:44;18.30;99.90
45323;DHT22;31382;50.200;8.674;2022-07-22T01:04:46;18.30;99.90
45323;DHT22;31382;50.200;8.674;2022-07-22T01:09:48;18.30;99.90
45323;DHT22;31382;50.200;8.674;2022-07-22T01:14:49;18.20;99.90
45323;DHT22;31382;50.200;8.674;2022-07-22T01:19:51;18.20;99.90
45323;DHT22;31382;50.200;8.674;2022-07-22T01:24:53;18.10;99.90
45323;DHT22;31382;50.200;8.674;2022-07-22T01:29:55;18.10;99.90
45323;DHT22;31382;50.200;8.674;2022-07-22T01:34:57;18.10;99.90
45323;DHT22;31382;50.200;8.674;2022-07-22T01:39:58;18.00;99.90
45323;DHT22;31382;50.200;8.674;2022-07-22T01:45:00;18.00;99.90
45323;DHT22;31382;50.200;8.674;2022-07-22T01:50:04;17.90;99.90
45323;DHT22;31382;50.200;8.674;2022-07-22T01:55:08;17.90;99.90
45323;DHT22;31382;50.200;8.674;2022-07-22T02:00:10;17.90;99.90
45323;DHT22;31382;50.200;8.674;2022-07-22T02:05:13;17.90;99.90
45323;DHT22;31382;50.200;8.674;2022-07-22T02:10:14;17.90;99.90
45323;DHT22;31382;50.200;8.674;2022-07-22T02:15:16;17.90;99.90
45323;DHT22;31382;50.200;8.674;2022-07-22T02:20:18;17.90;99.90
45323;DHT22;31382;50.200;8.674;2022-07-22T02:25:20;17.90;99.90
45323;DHT22;31382;50.200;8.674;2022-07-22T02:30:21;17.90;99.90
45323;DHT22;31382;50.200;8.674;2022-07-22T02:35:23;17.90;99.90
45323;DHT22;31382;50.200;8.674;2022-07-22T02:40:26;17.80;99.90
45323;DHT22;31382;50.200;8.674;2022-07-22T02:45:28;17.80;99.90
45323;DHT22;31382;50.200;8.674;2022-07-22T02:50:30;17.80;99.90
45323;DHT22;31382;50.200;8.674;2022-07-22T02:55:34;17.70;99.90
45323;DHT22;31382;50.200;8.674;2022-07-22T03:00:36;17.80;99.90
45323;DHT22;31382;50.200;8.674;2022-07-22T03:05:41;17.70;99.90
45323;DHT22;31382;50.200;8.674;2022-07-22T03:10:42;17.70;99.90
45323;DHT22;31382;50.200;8.674;2022-07-22T03:15:44;17.70;99.90
45323;DHT22;31382;50.200;8.674;2022-07-22T03:20:46;17.70;99.90
45323;DHT22;31382;50.200;8.674;2022-07-22T03:25:48;17.60;99.90
45323;DHT22;31382;50.200;8.674;2022-07-22T03:30:49;17.40;99.90
45323;DHT22;31382;50.200;8.674;2022-07-22T03:35:51;17.40;99.90
45323;DHT22;31382;50.200;8.674;2022-07-22T03:40:53;17.30;99.90
45323;DHT22;31382;50.200;8.674;2022-07-22T03:45:55;17.30;99.90
45323;DHT22;31382;50.200;8.674;2022-07-22T03:50:57;17.20;99.90
45323;DHT22;31382;50.200;8.674;2022-07-22T03:55:59;17.20;99.90
45323;DHT22;31382;50.200;8.674;2022-07-22T04:01:01;17.30;99.90
45323;DHT22;31382;50.200;8.674;2022-07-22T04:06:03;17.20;99.90
45323;DHT22;31382;50.200;8.674;2022-07-22T04:11:05;17.20;99.90
45323;DHT22;31382;50.200;8.674;2022-07-22T04:16:07;17.30;99.90
45323;DHT22;31382;50.200;8.674;2022-07-22T04:21:08;17.40;99.90
45323;DHT22;31382;50.200;8.674;2022-07-22T04:26:10;17.40;99.90
45323;DHT22;31382;50.200;8.674;2022-07-22T04:31:12;17.50;99.90
45323;DHT22;31382;50.200;8.674;2022-07-22T04:36:14;17.60;99.90
45323;DHT22;31382;50.200;8.674;2022-07-22T04:41:15;17.70;99.90
45323;DHT22;31382;50.200;8.674;2022-07-22T04:46:21;17.80;99.90
45323;DHT22;31382;50.200;8.674;2022-07-22T04:51:23;17.90;99.90
45323;DHT22;31382;50.200;8.674;2022-07-22T04:56:25;18.00;99.90
45323;DHT22;31382;50.200;8.674;2022-07-22T05:01:27;18.10;99.90
45323;DHT22;31382;50.200;8.674;2022-07-22T05:06:29;18.30;99.90
45323;DHT22;31382;50.200;8.674;2022-07-22T05:11:31;18.40;99.90
45323;DHT22;31382;50.200;8.674;2022-07-22T05:16:35;18.50;99.90
45323;DHT22;31382;50.200;8.674;2022-07-22T05:21:38;18.50;99.90
45323;DHT22;31382;50.200;8.674;2022-07-22T05:26:40;18.60;99.90
45323;DHT22;31382;50.200;8.674;2022-07-22T05:31:42;18.70;99.90
45323;DHT22;31382;50.200;8.674;2022-07-22T05:36:44;18.80;99.90
45323;DHT22;31382;50.200;8.674;2022-07-22T05:41:45;18.90;99.90
45323;DHT22;31382;50.200;8.674;2022-07-22T05:46:47;18.90;99.90
45323;DHT22;31382;50.200;8.674;2022-07-22T05:51:49;18.90;99.90
45323;DHT22;31382;50.200;8.674;2022-07-22T05:56:50;19.10;99.90
45323;DHT22;31382;50.200;8.674;2022-07-22T06:01:52;19.10;99.90
45323;DHT22;31382;50.200;8.674;2022-07-22T06:06:54;19.10;99.90
45323;DHT22;31382;50.200;8.674;2022-07-22T06:11:56;19.20;99.90
45323;DHT22;31382;50.200;8.674;2022-07-22T06:16:57;19.30;99.90
45323;DHT22;31382;50.200;8.674;2022-07-22T06:21:59;19.20;99.90
45323;DHT22;31382;50.200;8.674;2022-07-22T06:27:01;19.30;99.90
45323;DHT22;31382;50.200;8.674;2022-07-22T06:32:02;19.30;99.90
45323;DHT22;31382;50.200;8.674;2022-07-22T06:37:04;19.40;99.90
45323;DHT22;31382;50.200;8.674;2022-07-22T06:42:06;19.50;99.90
45323;DHT22;31382;50.200;8.674;2022-07-22T06:47:08;19.70;99.90
45323;DHT22;31382;50.200;8.674;2022-07-22T06:52:10;19.80;99.90
45323;DHT22;31382;50.200;8.674;2022-07-22T06:57:12;20.00;99.90
45323;DHT22;31382;50.200;8.674;2022-07-22T07:02:13;20.20;99.90
45323;DHT22;31382;50.200;8.674;2022-07-22T07:07:15;20.40;99.90
45323;DHT22;31382;50.200;8.674;2022-07-22T07:12:20;20.60;99.90
45323;DHT22;31382;50.200;8.674;2022-07-22T07:17:22;20.80;99.90
45323;DHT22;31382;50.200;8.674;2022-07-22T07:22:25;21.00;99.90
45323;DHT22;31382;50.200;8.674;2022-07-22T07:27:27;21.20;99.90
45323;DHT22;31382;50.200;8.674;2022-07-22T07:32:30;21.20;99.90
45323;DHT22;31382;50.200;8.674;2022-07-22T07:37:31;21.20;99.90
45323;DHT22;31382;50.200;8.674;2022-07-22T07:42:33;21.30;99.90
45323;DHT22;31382;50.200;8.674;2022-07-22T07:47:35;21.30;99.90
45323;DHT22;31382;50.200;8.674;2022-07-22T07:52:40;21.50;99.90
45323;DHT22;31382;50.200;8.674;2022-07-22T07:57:50;21.60;99.90
45323;DHT22;31382;50.200;8.674;2022-07-22T08:02:52;21.80;99.90
45323;DHT22;31382;50.200;8.674;2022-07-22T08:07:55;21.90;99.90
45323;DHT22;31382;50.200;8.674;2022-07-22T08:12:57;22.00;99.90
45323;DHT22;31382;50.200;8.674;2022-07-22T08:18:00;22.00;99.90
45323;DHT22;31382;50.200;8.674;2022-07-22T08:23:03;22.10;99.90
45323;DHT22;31382;50.200;8.674;2022-07-22T08:28:05;22.20;99.90
45323;DHT22;31382;50.200;8.674;2022-07-22T08:33:07;22.20;99.90
45323;DHT22;31382;50.200;8.674;2022-07-22T08:38:09;22.40;99.90
45323;DHT22;31382;50.200;8.674;2022-07-22T08:43:11;22.50;99.90
45323;DHT22;31382;50.200;8.674;2022-07-22T08:48:13;22.50;99.90
45323;DHT22;31382;50.200;8.674;2022-07-22T08:53:15;22.40;99.90
45323;DHT22;31382;50.200;8.674;2022-07-22T08:58:17;22.60;99.90
45323;DHT22;31382;50.200;8.674;2022-07-22T09:03:21;22.20;99.90
45323;DHT22;31382;50.200;8.674;2022-07-22T09:08:24;22.30;99.90
45323;DHT22;31382;50.200;8.674;2022-07-22T09:13:26;22.20;99.90
45323;DHT22;31382;50.200;8.674;2022-07-22T09:18:43;22.60;99.90
45323;DHT22;31382;50.200;8.674;2022-07-22T09:23:45;22.90;99.90
45323;DHT22;31382;50.200;8.674;2022-07-22T09:28:54;23.20;99.90
45323;DHT22;31382;50.200;8.674;2022-07-22T09:34:00;23.40;99.90
45323;DHT22;31382;50.200;8.674;2022-07-22T09:39:29;23.30;99.90
45323;DHT22;31382;50.200;8.674;2022-07-22T09:44:31;23.50;99.90
45323;DHT22;31382;50.200;8.674;2022-07-22T09:49:37;23.80;99.90
45323;DHT22;31382;50.200;8.674;2022-07-22T09:54:41;23.70;99.90
45323;DHT22;31382;50.200;8.674;2022-07-22T09:59:43;23.90;99.90
45323;DHT22;31382;50.200;8.674;2022-07-22T10:04:46;24.30;99.90
45323;DHT22;31382;50.200;8.674;2022-07-22T10:09:48;24.00;99.90
45323;DHT22;31382;50.200;8.674;2022-07-22T10:14:52;24.20;99.90
45323;DHT22;31382;50.200;8.674;2022-07-22T10:19:55;24.50;99.90
45323;DHT22;31382;50.200;8.674;2022-07-22T10:25:00;24.80;99.90
45323;DHT22;31382;50.200;8.674;2022-07-22T10:30:04;25.10;99.90
45323;DHT22;31382;50.200;8.674;2022-07-22T10:40:16;25.10;99.90
45323;DHT22;31382;50.200;8.674;2022-07-22T10:45:18;25.50;99.90
45323;DHT22;31382;50.200;8.674;2022-07-22T10:56:13;26.20;99.80
45323;DHT22;31382;50.200;8.674;2022-07-22T11:01:16;26.90;98.80
45323;DHT22;31382;50.200;8.674;2022-07-22T11:06:39;27.20;97.50
45323;DHT22;31382;50.200;8.674;2022-07-22T11:16:48;27.70;96.70
45323;DHT22;31382;50.200;8.674;2022-07-22T11:22:02;27.60;95.90
45323;DHT22;31382;50.200;8.674;2022-07-22T11:27:13;28.20;95.20
45323;DHT22;31382;50.200;8.674;2022-07-22T11:32:16;28.40;94.30
45323;DHT22;31382;50.200;8.674;2022-07-22T11:37:20;28.50;92.30
45323;DHT22;31382;50.200;8.674;2022-07-22T11:42:27;29.00;92.80
45323;DHT22;31382;50.200;8.674;2022-07-22T11:47:29;29.20;92.30
45323;DHT22;31382;50.200;8.674;2022-07-22T11:52:31;29.30;91.10
45323;DHT22;31382;50.200;8.674;2022-07-22T11:57:32;29.60;91.40
45323;DHT22;31382;50.200;8.674;2022-07-22T12:02:34;29.70;87.90
45323;DHT22;31382;50.200;8.674;2022-07-22T12:07:38;29.80;88.10
45323;DHT22;31382;50.200;8.674;2022-07-22T12:12:41;29.90;85.50
45323;DHT22;31382;50.200;8.674;2022-07-22T12:17:42;30.20;85.60
45323;DHT22;31382;50.200;8.674;2022-07-22T12:22:45;30.20;83.00
45323;DHT22;31382;50.200;8.674;2022-07-22T12:28:00;29.70;83.20
45323;DHT22;31382;50.200;8.674;2022-07-22T12:33:03;29.40;82.80
45323;DHT22;31382;50.200;8.674;2022-07-22T12:38:08;29.80;81.80
45323;DHT22;31382;50.200;8.674;2022-07-22T12:43:10;30.00;79.00
45323;DHT22;31382;50.200;8.674;2022-07-22T12:48:11;30.20;79.00
45323;DHT22;31382;50.200;8.674;2022-07-22T12:53:15;30.20;76.70
45323;DHT22;31382;50.200;8.674;2022-07-22T12:58:20;30.50;78.10
45323;DHT22;31382;50.200;8.674;2022-07-22T13:03:24;29.80;74.90
45323;DHT22;31382;50.200;8.674;2022-07-22T13:08:29;29.70;77.30
45323;DHT22;31382;50.200;8.674;2022-07-22T13:13:45;30.20;79.90
45323;DHT22;31382;50.200;8.674;2022-07-22T13:18:50;30.10;76.10
45323;DHT22;31382;50.200;8.674;2022-07-22T13:23:53;29.70;76.10
45323;DHT22;31382;50.200;8.674;2022-07-22T13:28:55;29.80;75.20
45323;DHT22;31382;50.200;8.674;2022-07-22T13:33:57;30.40;74.30
45323;DHT22;31382;50.200;8.674;2022-07-22T13:38:59;29.90;74.10
45323;DHT22;31382;50.200;8.674;2022-07-22T13:44:01;30.20;74.80
45323;DHT22;31382;50.200;8.674;2022-07-22T13:49:10;30.50;74.50
45323;DHT22;31382;50.200;8.674;2022-07-22T13:54:12;30.70;74.90
45323;DHT22;31382;50.200;8.674;2022-07-22T13:59:14;30.20;72.00
45323;DHT22;31382;50.200;8.674;2022-07-22T14:04:16;31.10;71.70
45323;DHT22;31382;50.200;8.674;2022-07-22T14:09:17;31.50;72.50
45323;DHT22;31382;50.200;8.674;2022-07-22T14:14:39;31.90;70.00
45323;DHT22;31382;50.200;8.674;2022-07-22T14:19:41;31.10;67.80
45323;DHT22;31382;50.200;8.674;2022-07-22T14:24:43;31.70;67.20
45323;DHT22;31382;50.200;8.674;2022-07-22T14:29:44;31.60;67.10
45323;DHT22;31382;50.200;8.674;2022-07-22T14:34:46;31.30;67.20
45323;DHT22;31382;50.200;8.674;2022-07-22T14:39:48;31.60;67.30
45323;DHT22;31382;50.200;8.674;2022-07-22T14:44:50;31.90;67.10
45323;DHT22;31382;50.200;8.674;2022-07-22T14:49:51;32.00;67.60
45323;DHT22;31382;50.200;8.674;2022-07-22T14:54:53;32.10;69.10
45323;DHT22;31382;50.200;8.674;2022-07-22T14:59:54;31.60;68.40
45323;DHT22;31382;50.200;8.674;2022-07-22T15:04:56;32.60;65.90
45323;DHT22;31382;50.200;8.674;2022-07-22T15:09:58;31.80;67.40
45323;DHT22;31382;50.200;8.674;2022-07-22T15:15:00;32.40;68.00
45323;DHT22;31382;50.200;8.674;2022-07-22T15:20:03;32.80;66.40
45323;DHT22;31382;50.200;8.674;2022-07-22T15:25:05;32.80;65.00
45323;DHT22;31382;50.200;8.674;2022-07-22T15:30:08;33.40;65.40
45323;DHT22;31382;50.200;8.674;2022-07-22T15:35:10;33.60;64.20
45323;DHT22;31382;50.200;8.674;2022-07-22T15:40:12;32.80;62.50
45323;DHT22;31382;50.200;8.674;2022-07-22T15:45:14;33.30;62.40
45323;DHT22;31382;50.200;8.674;2022-07-22T15:50:16;33.30;62.40
45323;DHT22;31382;50.200;8.674;2022-07-22T15:55:22;33.50;64.00
45323;DHT22;31382;50.200;8.674;2022-07-22T16:00:24;33.10;61.50
45323;DHT22;31382;50.200;8.674;2022-07-22T16:05:27;33.40;62.10
45323;DHT22;31382;50.200;8.674;2022-07-22T16:10:29;33.80;61.70
45323;DHT22;31382;50.200;8.674;2022-07-22T16:15:31;34.10;62.60
45323;DHT22;31382;50.200;8.674;2022-07-22T16:20:32;34.20;62.00
45323;DHT22;31382;50.200;8.674;2022-07-22T16:25:34;34.40;61.60
45323;DHT22;31382;50.200;8.674;2022-07-22T16:30:36;34.30;59.80
45323;DHT22;31382;50.200;8.674;2022-07-22T16:35:37;34.50;60.80
45323;DHT22;31382;50.200;8.674;2022-07-22T16:40:39;34.40;59.90
45323;DHT22;31382;50.200;8.674;2022-07-22T16:45:41;34.70;59.90
45323;DHT22;31382;50.200;8.674;2022-07-22T16:50:43;34.40;60.30
45323;DHT22;31382;50.200;8.674;2022-07-22T16:55:44;34.20;60.70
45323;DHT22;31382;50.200;8.674;2022-07-22T17:00:46;34.10;60.90
45323;DHT22;31382;50.200;8.674;2022-07-22T17:05:48;34.00;61.10
45323;DHT22;31382;50.200;8.674;2022-07-22T17:10:50;34.10;60.30
45323;DHT22;31382;50.200;8.674;2022-07-22T17:15:52;34.20;61.10
45323;DHT22;31382;50.200;8.674;2022-07-22T17:20:54;34.50;59.70
45323;DHT22;31382;50.200;8.674;2022-07-22T17:26:02;34.40;60.80
45323;DHT22;31382;50.200;8.674;2022-07-22T17:31:06;34.50;59.80
45323;DHT22;31382;50.200;8.674;2022-07-22T17:36:08;34.20;60.40
45323;DHT22;31382;50.200;8.674;2022-07-22T17:41:10;34.10;59.80
45323;DHT22;31382;50.200;8.674;2022-07-22T17:46:14;34.00;60.10
45323;DHT22;31382;50.200;8.674;2022-07-22T17:51:16;33.50;60.50
45323;DHT22;31382;50.200;8.674;2022-07-22T17:56:23;32.90;62.10
45323;DHT22;31382;50.200;8.674;2022-07-22T18:01:31;32.30;63.40
45323;DHT22;31382;50.200;8.674;2022-07-22T18:06:33;31.70;64.80
45323;DHT22;31382;50.200;8.674;2022-07-22T18:11:35;31.30;65.80
45323;DHT22;31382;50.200;8.674;2022-07-22T18:16:37;30.80;67.30
45323;DHT22;31382;50.200;8.674;2022-07-22T18:21:39;30.30;68.60
45323;DHT22;31382;50.200;8.674;2022-07-22T18:26:41;30.00;69.20
45323;DHT22;31382;50.200;8.674;2022-07-22T18:31:43;29.50;71.50
45323;DHT22;31382;50.200;8.674;2022-07-22T18:36:45;29.10;72.10
45323;DHT22;31382;50.200;8.674;2022-07-22T18:41:46;28.90;73.30
45323;DHT22;31382;50.200;8.674;2022-07-22T18:46:48;28.60;74.10
45323;DHT22;31382;50.200;8.674;2022-07-22T18:51:51;28.40;74.90
45323;DHT22;31382;50.200;8.674;2022-07-22T18:56:52;28.20;75.70
45323;DHT22;31382;50.200;8.674;2022-07-22T19:01:55;28.10;77.00
45323;DHT22;31382;50.200;8.674;2022-07-22T19:06:57;27.90;77.60
45323;DHT22;31382;50.200;8.674;2022-07-22T19:11:59;27.60;78.30
45323;DHT22;31382;50.200;8.674;2022-07-22T19:17:01;27.50;79.60
45323;DHT22;31382;50.200;8.674;2022-07-22T19:22:02;27.40;80.60
45323;DHT22;31382;50.200;8.674;2022-07-22T19:27:04;27.30;82.00
45323;DHT22;31382;50.200;8.674;2022-07-22T19:32:08;27.10;81.40
45323;DHT22;31382;50.200;8.674;2022-07-22T19:37:10;27.00;83.10
45323;DHT22;31382;50.200;8.674;2022-07-22T19:42:11;26.80;84.10
45323;DHT22;31382;50.200;8.674;2022-07-22T19:47:13;26.70;86.50
45323;DHT22;31382;50.200;8.674;2022-07-22T19:52:15;26.50;87.40
45323;DHT22;31382;50.200;8.674;2022-07-22T19:57:17;26.40;87.90
45323;DHT22;31382;50.200;8.674;2022-07-22T20:02:19;26.20;89.10
45323;DHT22;31382;50.200;8.674;2022-07-22T20:07:21;26.00;90.80
45323;DHT22;31382;50.200;8.674;2022-07-22T20:12:24;25.80;91.00
45323;DHT22;31382;50.200;8.674;2022-07-22T20:17:25;25.60;92.00
45323;DHT22;31382;50.200;8.674;2022-07-22T20:22:27;25.50;92.80
45323;DHT22;31382;50.200;8.674;2022-07-22T20:27:29;25.20;93.60
45323;DHT22;31382;50.200;8.674;2022-07-22T20:32:32;25.00;94.30
45323;DHT22;31382;50.200;8.674;2022-07-22T20:37:34;24.80;94.90
45323;DHT22;31382;50.200;8.674;2022-07-22T20:42:35;24.70;95.20
45323;DHT22;31382;50.200;8.674;2022-07-22T20:47:37;24.60;95.60
45323;DHT22;31382;50.200;8.674;2022-07-22T20:52:39;24.40;96.50
45323;DHT22;31382;50.200;8.674;2022-07-22T20:57:41;24.40;97.00
45323;DHT22;31382;50.200;8.674;2022-07-22T21:02:42;24.20;97.80
45323;DHT22;31382;50.200;8.674;2022-07-22T21:07:44;24.20;98.40
45323;DHT22;31382;50.200;8.674;2022-07-22T21:12:46;24.10;99.10
45323;DHT22;31382;50.200;8.674;2022-07-22T21:17:47;23.90;99.80
45323;DHT22;31382;50.200;8.674;2022-07-22T21:22:49;23.80;99.90
45323;DHT22;31382;50.200;8.674;2022-07-22T21:27:51;23.70;99.90
45323;DHT22;31382;50.200;8.674;2022-07-22T21:32:53;23.60;99.90
45323;DHT22;31382;50.200;8.674;2022-07-22T21:37:55;23.50;99.90
45323;DHT22;31382;50.200;8.674;2022-07-22T21:42:57;23.40;99.90
45323;DHT22;31382;50.200;8.674;2022-07-22T21:47:58;23.30;99.90
45323;DHT22;31382;50.200;8.674;2022-07-22T21:53:00;23.20;99.90
45323;DHT22;31382;50.200;8.674;2022-07-22T21:58:02;23.10;99.90
45323;DHT22;31382;50.200;8.674;2022-07-22T22:03:04;23.00;99.90
45323;DHT22;31382;50.200;8.674;2022-07-22T22:08:06;23.00;99.90
45323;DHT22;31382;50.200;8.674;2022-07-22T22:13:09;22.90;99.90
45323;DHT22;31382;50.200;8.674;2022-07-22T22:18:11;22.80;99.90
45323;DHT22;31382;50.200;8.674;2022-07-22T22:23:13;22.70;99.90
45323;DHT22;31382;50.200;8.674;2022-07-22T22:28:15;22.60;99.90
45323;DHT22;31382;50.200;8.674;2022-07-22T22:33:17;22.60;99.90
45323;DHT22;31382;50.200;8.674;2022-07-22T22:38:18;22.50;99.90
45323;DHT22;31382;50.200;8.674;2022-07-22T22:43:20;22.30;99.90
45323;DHT22;31382;50.200;8.674;2022-07-22T22:48:22;22.30;99.90
45323;DHT22;31382;50.200;8.674;2022-07-22T22:53:23;22.20;99.90
45323;DHT22;31382;50.200;8.674;2022-07-22T22:58:25;22.20;99.90
45323;DHT22;31382;50.200;8.674;2022-07-22T23:03:27;22.10;99.90
45323;DHT22;31382;50.200;8.674;2022-07-22T23:08:29;22.00;99.90
45323;DHT22;31382;50.200;8.674;2022-07-22T23:13:30;21.90;99.90
45323;DHT22;31382;50.200;8.674;2022-07-22T23:18:32;21.80;99.90
45323;DHT22;31382;50.200;8.674;2022-07-22T23:23:34;21.70;99.90
45323;DHT22;31382;50.200;8.674;2022-07-22T23:28:36;21.70;99.90
45323;DHT22;31382;50.200;8.674;2022-07-22T23:33:37;21.60;99.90
45323;DHT22;31382;50.200;8.674;2022-07-22T23:38:39;21.60;99.90
45323;DHT22;31382;50.200;8.674;2022-07-22T23:43:41;21.50;99.90
45323;DHT22;31382;50.200;8.674;2022-07-22T23:48:43;21.50;99.90
45323;DHT22;31382;50.200;8.674;2022-07-22T23:53:44;21.40;99.90
45323;DHT22;31382;50.200;8.674;2022-07-22T23:58:46;21.30;99.90
